Time;durP1;ratioP1;P1;durP2;ratioP2;P2;SDS_P1;SDS_P2;PMS_P1;PMS_P2;Temp;Humidity;BMP_temperature;BMP_pressure;BME280_temperature;BME280_humidity;BME280_pressure;Samples;Min_cycle;Max_cycle;Signal;HPM_P1;HPM_P2
2022/01/27 00:05:34;;;;;;;;;;;;;;;9.41;43.03;100458.47;4463089;32;33745;-65
2022/01/27 00:10:48;;;;;;;;;;;;;;;8.96;44.15;100456.66;4464598;32;34377;-65
2022/01/27 00:13:17;;;;;;;;;;;;;;;9.29;43.59;100451.16;4466830;32;34554;-66
2022/01/27 00:15:47;;;;;;;;;;;;;;;8.82;44.18;100466.28;4465055;32;33613;-68
2022/01/27 00:18:19;;;;;;;;;;;;;;;9.22;43.21;100463.16;4471372;32;35268;-66
2022/01/27 00:20:46;;;;;;;;;;;;;;;8.63;44.94;100457.56;4465542;32;34141;-67
2022/01/27 00:23:14;;;;;;;;;;;;;;;8.94;44.19;100456.72;4465956;32;34143;-67
2022/01/27 00:25:42;;;;;;;;;;;;;;;7.94;46.26;100454.13;4466539;32;33429;-66
2022/01/27 00:28:09;;;;;;;;;;;;;;;8.68;45.01;100449.31;4463476;32;35353;-65
2022/01/27 00:30:37;;;;;;;;;;;;;;;8.51;44.97;100443.13;4455772;32;33803;-66
2022/01/27 00:33:05;;;;;;;;;;;;;;;8.37;45.32;100445.62;4465903;32;34493;-67
2022/01/27 00:35:32;;;;;;;;;;;;;;;8.22;45.30;100455.34;4461429;32;33881;-65
2022/01/27 00:38:00;;;;;;;;;;;;;;;8.21;45.66;100450.94;4465338;32;34327;-66
2022/01/27 00:40:28;;;;;;;;;;;;;;;8.40;45.20;100445.50;4465940;32;32534;-65
2022/01/27 00:42:55;;;;;;;;;;;;;;;8.85;43.60;100457.25;4465261;32;35291;-66
2022/01/27 00:45:24;;;;;;;;;;;;;;;8.39;44.85;100446.44;4444201;32;33935;-64
2022/01/27 00:47:51;;;;;;;;;;;;;;;8.38;45.06;100461.59;4449002;32;34699;-64
2022/01/27 00:50:19;;;;;;;;;;;;;;;8.39;45.12;100449.97;4441335;32;34496;-64
2022/01/27 00:52:53;;;;;;;;;;;;;;;8.07;45.82;100454.34;4444015;32;34226;-65
2022/01/27 00:55:23;;;;;;;;;;;;;;;8.31;46.08;100461.97;4444172;32;33487;-63
2022/01/27 01:00:27;;;;;;;;;;;;;;;8.12;46.27;100452.31;4453408;32;33847;-65
2022/01/27 01:03:02;;;;;;;;;;;;;;;8.62;44.54;100448.72;4441678;32;34487;-67
2022/01/27 01:16:08;;;;;;;;;;;;;;;7.61;46.67;100437.25;4445457;32;33627;-66
2022/01/27 01:18:59;;;;;;;;;;;;;;;8.15;45.45;100427.25;4443024;32;34284;-68
2022/01/27 01:21:50;;;;;;;;;;;;;;;8.63;43.82;100431.78;4443507;32;35334;-67
2022/01/27 01:30:21;;;;;;;;;;;;;;;8.64;44.24;100427.28;4443972;32;34107;-68
2022/01/27 01:32:56;;;;;;;;;;;;;;;8.83;43.34;100422.63;4440089;32;36949;-69
2022/01/27 01:35:46;;;;;;;;;;;;;;;8.50;43.54;100424.50;4440638;32;34029;-69
2022/01/27 01:38:19;;;;;;;;;;;;;;;8.91;43.17;100422.19;4444606;32;33113;-70
2022/01/27 01:40:47;;;;;;;;;;;;;;;9.08;42.71;100424.75;4440889;32;34195;-67
2022/01/27 01:43:15;;;;;;;;;;;;;;;9.07;42.44;100420.34;4443310;32;35500;-68
2022/01/27 01:45:43;;;;;;;;;;;;;;;8.47;45.07;100417.53;4463884;32;35705;-68
2022/01/27 01:48:11;;;;;;;;;;;;;;;8.08;45.52;100407.22;4463358;32;34238;-70
2022/01/27 01:50:38;;;;;;;;;;;;;;;8.27;44.68;100409.75;4458412;32;35240;-67
2022/01/27 01:53:05;;;;;;;;;;;;;;;8.41;44.25;100412.56;4466876;32;34437;-67
2022/01/27 01:55:33;;;;;;;;;;;;;;;8.91;42.94;100411.50;4454816;32;32834;-69
2022/01/27 01:58:00;;;;;;;;;;;;;;;8.60;44.07;100417.72;4453593;32;33691;-70
2022/01/27 02:00:28;;;;;;;;;;;;;;;8.37;44.34;100421.62;4456171;32;34237;-70
2022/01/27 02:02:56;;;;;;;;;;;;;;;8.38;44.25;100424.25;4458967;32;32932;-68
2022/01/27 02:05:27;;;;;;;;;;;;;;;7.87;45.53;100417.22;4457097;32;34361;-68
2022/01/27 02:19:11;;;;;;;;;;;;;;;7.28;47.55;100415.84;4461249;32;34812;-68
2022/01/27 02:21:45;;;;;;;;;;;;;;;7.07;47.95;100405.34;4464253;32;34280;-68
2022/01/27 02:24:13;;;;;;;;;;;;;;;7.60;46.21;100396.41;4460444;32;34193;-70
2022/01/27 02:26:41;;;;;;;;;;;;;;;7.30;47.70;100393.53;4456588;32;33776;-69
2022/01/27 02:29:08;;;;;;;;;;;;;;;7.20;47.49;100381.62;4470956;32;33442;-69
2022/01/27 02:31:36;;;;;;;;;;;;;;;7.48;47.01;100381.06;4466783;32;33937;-70
2022/01/27 02:34:05;;;;;;;;;;;;;;;7.18;48.09;100379.03;4465362;32;34947;-70
2022/01/27 02:36:35;;;;;;;;;;;;;;;7.00;48.59;100387.94;4464073;32;35913;-67
2022/01/27 02:39:03;;;;;;;;;;;;;;;7.35;46.85;100382.63;4465344;32;33324;-69
2022/01/27 02:41:32;;;;;;;;;;;;;;;7.16;48.05;100375.59;4464060;32;34180;-71
2022/01/27 02:43:59;;;;;;;;;;;;;;;7.25;47.35;100368.91;4453911;32;34335;-68
2022/01/27 02:46:30;;;;;;;;;;;;;;;7.50;46.50;100362.34;4455336;32;34541;-69
2022/01/27 02:48:58;;;;;;;;;;;;;;;6.88;47.80;100361.94;4456566;32;32803;-69
2022/01/27 02:51:25;;;;;;;;;;;;;;;7.13;47.79;100358.91;4449467;32;33983;-68
2022/01/27 02:53:52;;;;;;;;;;;;;;;7.72;46.26;100365.59;4456256;32;33956;-69
2022/01/27 02:56:20;;;;;;;;;;;;;;;7.72;46.14;100362.94;4459764;32;34925;-69
2022/01/27 02:58:47;;;;;;;;;;;;;;;6.98;48.81;100363.19;4460509;32;32512;-70
2022/01/27 03:01:22;;;;;;;;;;;;;;;7.43;46.62;100356.47;4462578;32;35245;-70
2022/01/27 03:03:49;;;;;;;;;;;;;;;6.98;48.14;100364.06;4464826;32;33962;-67
2022/01/27 03:06:17;;;;;;;;;;;;;;;6.21;50.24;100372.22;4462461;32;34428;-67
2022/01/27 03:08:44;;;;;;;;;;;;;;;7.08;47.07;100363.59;4461675;32;31989;-68
2022/01/27 03:11:12;;;;;;;;;;;;;;;7.32;46.93;100367.69;4462010;32;33636;-66
2022/01/27 03:13:40;;;;;;;;;;;;;;;7.21;47.31;100370.88;4462542;32;34341;-68
2022/01/27 03:16:08;;;;;;;;;;;;;;;6.61;49.27;100382.75;4464003;32;35274;-65
2022/01/27 03:18:36;;;;;;;;;;;;;;;6.73;49.19;100384.84;4464237;32;34825;-70
2022/01/27 03:21:04;;;;;;;;;;;;;;;7.03;48.50;100384.25;4463067;32;32491;-67
2022/01/27 03:23:33;;;;;;;;;;;;;;;6.77;48.26;100391.72;4464764;32;33849;-66
2022/01/27 03:26:00;;;;;;;;;;;;;;;7.46;46.48;100388.28;4461491;32;34930;-71
2022/01/27 03:28:29;;;;;;;;;;;;;;;7.02;47.24;100379.87;4463899;32;33141;-72
2022/01/27 03:30:57;;;;;;;;;;;;;;;6.83;48.42;100371.94;4466133;32;33978;-67
2022/01/27 03:33:25;;;;;;;;;;;;;;;6.71;48.46;100381.41;4462868;32;34355;-69
2022/01/27 03:35:52;;;;;;;;;;;;;;;6.58;48.84;100377.59;4465245;32;35329;-66
2022/01/27 03:38:20;;;;;;;;;;;;;;;5.23;52.17;100381.91;4460156;32;33226;-67
2022/01/27 03:40:47;;;;;;;;;;;;;;;6.06;50.47;100370.28;4463406;32;34015;-67
2022/01/27 03:43:15;;;;;;;;;;;;;;;6.30;48.93;100365.63;4462947;32;33823;-68
2022/01/27 03:45:42;;;;;;;;;;;;;;;5.89;51.08;100370.16;4465875;32;34380;-67
2022/01/27 03:48:10;;;;;;;;;;;;;;;6.39;48.88;100366.97;4462810;32;33095;-69
2022/01/27 03:50:37;;;;;;;;;;;;;;;6.45;48.59;100356.03;4462476;32;32781;-70
2022/01/27 03:53:05;;;;;;;;;;;;;;;5.81;50.69;100355.44;4464075;32;35134;-67
2022/01/27 03:55:32;;;;;;;;;;;;;;;6.18;49.28;100342.28;4461434;32;34356;-70
2022/01/27 03:57:59;;;;;;;;;;;;;;;6.26;49.09;100348.06;4464007;32;33503;-68
2022/01/27 04:00:27;;;;;;;;;;;;;;;6.28;49.25;100344.41;4463408;32;33964;-66
2022/01/27 04:03:03;;;;;;;;;;;;;;;6.47;48.44;100340.88;4463215;32;33275;-66
2022/01/27 04:05:51;;;;;;;;;;;;;;;6.49;47.83;100344.34;4464080;32;35338;-66
2022/01/27 04:08:19;;;;;;;;;;;;;;;6.24;49.71;100355.28;4462449;32;33120;-67
2022/01/27 04:10:47;;;;;;;;;;;;;;;6.08;50.05;100355.13;4464664;32;35219;-72
2022/01/27 04:13:15;;;;;;;;;;;;;;;5.98;50.65;100352.03;4464895;32;34576;-70
2022/01/27 04:15:43;;;;;;;;;;;;;;;6.45;48.67;100361.34;4464300;32;32609;-69
2022/01/27 04:18:11;;;;;;;;;;;;;;;6.71;48.29;100358.31;4463689;32;33521;-71
2022/01/27 04:20:39;;;;;;;;;;;;;;;6.60;47.86;100354.44;4463728;32;32926;-70
2022/01/27 04:23:07;;;;;;;;;;;;;;;6.35;49.24;100360.94;4460380;32;34228;-68
2022/01/27 04:25:37;;;;;;;;;;;;;;;6.51;47.89;100355.75;4461258;32;34477;-68
2022/01/27 04:28:08;;;;;;;;;;;;;;;6.92;47.35;100369.69;4462901;32;33481;-69
2022/01/27 04:30:36;;;;;;;;;;;;;;;6.86;48.03;100361.16;4461847;32;32467;-67
2022/01/27 04:33:05;;;;;;;;;;;;;;;6.57;47.16;100366.09;4463758;32;34794;-68
2022/01/27 04:35:36;;;;;;;;;;;;;;;7.32;45.73;100361.47;4460801;32;34245;-68
2022/01/27 04:43:22;;;;;;;;;;;;;;;7.13;47.50;100353.59;4459800;32;35346;-67
2022/01/27 04:48:20;;;;;;;;;;;;;;;7.26;45.86;100356.50;4464011;32;33449;-69
2022/01/27 04:50:48;;;;;;;;;;;;;;;7.60;44.63;100356.44;4461205;32;35059;-68
2022/01/27 04:53:22;;;;;;;;;;;;;;;7.76;45.13;100359.16;4464106;32;35399;-69
2022/01/27 04:56:13;;;;;;;;;;;;;;;7.28;46.70;100358.09;4459844;32;34017;-68
2022/01/27 04:58:43;;;;;;;;;;;;;;;7.32;46.59;100362.37;4466504;32;32763;-68
2022/01/27 05:01:10;;;;;;;;;;;;;;;7.31;45.28;100363.28;4464671;32;33329;-69
2022/01/27 05:04:14;;;;;;;;;;;;;;;7.34;45.42;100355.13;4463849;32;35405;-69
2022/01/27 05:06:31;;;;;;;;;;;;;;;7.80;44.19;100351.84;4462099;32;35457;-68
2022/01/27 05:08:59;;;;;;;;;;;;;;;7.37;46.04;100362.09;4461643;32;33148;-67
2022/01/27 05:11:36;;;;;;;;;;;;;;;7.63;44.69;100358.94;4464801;32;33548;-67
2022/01/27 05:16:31;;;;;;;;;;;;;;;7.41;45.38;100343.22;4463186;32;34330;-68
2022/01/27 05:18:58;;;;;;;;;;;;;;;7.34;47.21;100343.62;4464819;32;33696;-70
2022/01/27 05:21:25;;;;;;;;;;;;;;;7.69;46.32;100342.63;4461418;32;35429;-70
2022/01/27 05:23:53;;;;;;;;;;;;;;;7.51;45.78;100345.41;4463665;32;34205;-71
2022/01/27 05:26:20;;;;;;;;;;;;;;;7.43;45.47;100344.00;4463494;32;33083;-70
2022/01/27 05:28:48;;;;;;;;;;;;;;;7.92;44.80;100345.87;4463913;32;33562;-69
2022/01/27 05:31:15;;;;;;;;;;;;;;;8.34;42.75;100358.63;4465736;32;34004;-70
2022/01/27 05:33:42;;;;;;;;;;;;;;;8.13;43.32;100347.38;4462833;32;35368;-69
2022/01/27 05:36:10;;;;;;;;;;;;;;;7.76;44.71;100348.50;4466377;32;35791;-69
2022/01/27 05:38:38;;;;;;;;;;;;;;;8.02;43.71;100352.41;4463025;32;33583;-69
2022/01/27 05:41:05;;;;;;;;;;;;;;;7.99;44.19;100344.56;4461919;32;33847;-69
2022/01/27 05:43:33;;;;;;;;;;;;;;;7.77;44.42;100344.91;4463280;32;33595;-70
2022/01/27 05:46:01;;;;;;;;;;;;;;;7.89;43.89;100336.22;4464000;32;34985;-68
2022/01/27 05:48:28;;;;;;;;;;;;;;;8.38;44.04;100336.22;4461655;32;32419;-67
2022/01/27 05:50:56;;;;;;;;;;;;;;;8.20;43.48;100344.38;4464922;32;34263;-69
2022/01/27 05:53:24;;;;;;;;;;;;;;;8.21;44.31;100338.06;4461669;32;34344;-68
2022/01/27 05:55:51;;;;;;;;;;;;;;;8.17;43.63;100332.06;4463199;32;34103;-67
2022/01/27 05:58:19;;;;;;;;;;;;;;;8.04;43.56;100331.87;4465140;32;32122;-67
2022/01/27 06:00:47;;;;;;;;;;;;;;;7.91;43.87;100329.00;4463822;32;35146;-70
2022/01/27 06:03:14;;;;;;;;;;;;;;;7.60;44.71;100335.13;4464757;32;32973;-66
2022/01/27 06:05:41;;;;;;;;;;;;;;;7.48;46.09;100327.81;4463290;32;35471;-67
2022/01/27 06:08:09;;;;;;;;;;;;;;;7.90;44.11;100324.63;4458289;32;34635;-69
2022/01/27 06:10:36;;;;;;;;;;;;;;;7.52;45.91;100324.03;4461807;32;33819;-68
2022/01/27 06:13:04;;;;;;;;;;;;;;;7.61;45.14;100320.88;4463869;32;33020;-68
2022/01/27 06:15:31;;;;;;;;;;;;;;;8.05;44.11;100324.72;4462099;32;33042;-68
2022/01/27 06:17:59;;;;;;;;;;;;;;;8.03;44.54;100318.63;4462111;32;33121;-68
2022/01/27 06:20:29;;;;;;;;;;;;;;;7.84;44.74;100313.44;4464438;32;33994;-68
2022/01/27 06:22:57;;;;;;;;;;;;;;;7.37;46.20;100315.03;4463727;32;34284;-68
2022/01/27 06:25:28;;;;;;;;;;;;;;;7.86;45.19;100320.41;4462753;32;34168;-68
2022/01/27 06:27:55;;;;;;;;;;;;;;;8.16;44.03;100333.88;4461634;32;32533;-68
2022/01/27 06:30:22;;;;;;;;;;;;;;;7.86;45.62;100330.19;4462997;32;34171;-68
2022/01/27 06:32:50;;;;;;;;;;;;;;;7.90;45.09;100329.97;4462049;32;34314;-67
2022/01/27 06:35:17;;;;;;;;;;;;;;;8.01;44.56;100331.19;4464363;32;34403;-68
2022/01/27 06:37:47;;;;;;;;;;;;;;;7.88;45.23;100329.19;4461856;32;33373;-68
2022/01/27 06:40:14;;;;;;;;;;;;;;;7.75;45.45;100337.94;4459908;32;33369;-69
2022/01/27 06:42:42;;;;;;;;;;;;;;;7.76;45.32;100347.62;4461402;32;35505;-67
2022/01/27 06:45:09;;;;;;;;;;;;;;;8.26;43.73;100352.03;4460930;32;34221;-69
2022/01/27 06:47:37;;;;;;;;;;;;;;;7.68;45.18;100356.91;4460924;32;32712;-68
2022/01/27 06:50:05;;;;;;;;;;;;;;;7.69;45.23;100363.09;4462248;32;35825;-67
2022/01/27 06:52:33;;;;;;;;;;;;;;;7.81;45.04;100369.56;4462526;32;35132;-68
2022/01/27 06:55:03;;;;;;;;;;;;;;;7.61;45.94;100365.31;4459438;32;34283;-68
2022/01/27 06:57:35;;;;;;;;;;;;;;;7.57;45.91;100380.56;4463377;32;33193;-67
2022/01/27 07:00:03;;;;;;;;;;;;;;;7.46;45.98;100380.28;4463589;32;34207;-67
2022/01/27 07:02:31;;;;;;;;;;;;;;;7.77;45.20;100370.66;4458144;32;34249;-68
2022/01/27 07:04:58;;;;;;;;;;;;;;;7.66;45.57;100372.09;4461483;32;34123;-68
2022/01/27 07:07:26;;;;;;;;;;;;;;;7.64;45.86;100368.69;4463511;32;32236;-68
2022/01/27 07:09:53;;;;;;;;;;;;;;;7.56;46.11;100360.22;4458486;32;34222;-74
2022/01/27 07:12:21;;;;;;;;;;;;;;;7.21;46.82;100362.03;4465257;32;34045;-67
2022/01/27 07:14:48;;;;;;;;;;;;;;;7.82;45.31;100357.97;4464317;32;33825;-67
2022/01/27 07:17:18;;;;;;;;;;;;;;;7.55;45.55;100354.97;4460987;32;35006;-67
2022/01/27 07:19:46;;;;;;;;;;;;;;;7.53;45.61;100359.50;4458116;32;32657;-67
2022/01/27 07:22:14;;;;;;;;;;;;;;;6.86;47.68;100363.81;4464681;32;34131;-73
2022/01/27 07:24:41;;;;;;;;;;;;;;;7.35;46.72;100361.31;4465731;32;35580;-69
2022/01/27 07:27:08;;;;;;;;;;;;;;;7.52;46.49;100355.13;4463036;32;34530;-68
2022/01/27 07:29:36;;;;;;;;;;;;;;;7.41;45.89;100348.53;4463621;32;35399;-69
2022/01/27 07:32:03;;;;;;;;;;;;;;;7.59;45.15;100346.72;4458631;32;35631;-70
2022/01/27 07:34:31;;;;;;;;;;;;;;;7.30;45.85;100344.72;4463906;32;34903;-70
2022/01/27 07:37:01;;;;;;;;;;;;;;;7.60;45.87;100342.25;4463751;32;33807;-67
2022/01/27 07:39:28;;;;;;;;;;;;;;;7.53;45.77;100340.88;4458226;32;216534;-72
2022/01/27 07:42:00;;;;;;;;;;;;;;;7.66;45.67;100331.28;4462726;32;35776;-67
2022/01/27 07:44:27;;;;;;;;;;;;;;;7.60;45.99;100329.78;4465880;32;34937;-67
2022/01/27 07:47:00;;;;;;;;;;;;;;;7.36;45.60;100325.78;4465093;32;33691;-66
2022/01/27 07:49:28;;;;;;;;;;;;;;;7.49;45.45;100326.00;4462746;32;34000;-68
2022/01/27 07:51:56;;;;;;;;;;;;;;;7.67;45.33;100325.00;4463381;32;34188;-68
2022/01/27 07:54:23;;;;;;;;;;;;;;;7.90;44.32;100321.13;4465762;32;35307;-67
2022/01/27 07:56:51;;;;;;;;;;;;;;;7.36;45.43;100321.31;4464605;32;31751;-68
2022/01/27 07:59:18;;;;;;;;;;;;;;;6.61;47.63;100324.25;4462783;32;32707;-67
2022/01/27 08:01:46;;;;;;;;;;;;;;;7.38;46.11;100315.88;4467765;32;34199;-68
2022/01/27 08:04:14;;;;;;;;;;;;;;;7.71;45.24;100323.91;4467675;32;34617;-68
2022/01/27 08:06:41;;;;;;;;;;;;;;;7.20;46.45;100323.91;4465136;32;33380;-68
2022/01/27 08:09:08;;;;;;;;;;;;;;;6.97;46.94;100310.91;4464938;32;34242;-68
2022/01/27 08:11:36;;;;;;;;;;;;;;;7.15;46.37;100315.28;4466212;32;34365;-67
2022/01/27 08:14:03;;;;;;;;;;;;;;;7.53;46.13;100316.88;4466334;32;34427;-69
2022/01/27 08:16:30;;;;;;;;;;;;;;;6.72;48.28;100317.47;4466033;32;33662;-68
2022/01/27 08:18:58;;;;;;;;;;;;;;;7.73;45.49;100313.16;4464508;32;32411;-68
2022/01/27 08:21:25;;;;;;;;;;;;;;;7.92;44.56;100321.87;4464608;32;34859;-67
2022/01/27 08:23:54;;;;;;;;;;;;;;;7.38;46.26;100310.56;4465626;32;35455;-68
2022/01/27 08:26:31;;;;;;;;;;;;;;;8.44;43.39;100323.47;4462932;32;34691;-68
2022/01/27 08:29:09;;;;;;;;;;;;;;;8.49;43.33;100310.75;4467211;32;34630;-67
2022/01/27 08:31:56;;;;;;;;;;;;;;;8.20;43.61;100321.22;4465163;32;35341;-68
2022/01/27 08:34:33;;;;;;;;;;;;;;;8.48;43.94;100327.72;4463377;32;34368;-70
2022/01/27 08:37:09;;;;;;;;;;;;;;;9.13;42.23;100322.16;4466143;32;34647;-69
2022/01/27 08:39:37;;;;;;;;;;;;;;;9.74;41.10;100313.91;4468443;32;33909;-69
2022/01/27 08:42:05;;;;;;;;;;;;;;;9.81;40.26;100314.41;4466322;32;34373;-68
2022/01/27 08:44:32;;;;;;;;;;;;;;;9.92;39.70;100309.25;4466669;32;34138;-68
2022/01/27 08:46:59;;;;;;;;;;;;;;;9.78;40.43;100306.56;4466122;32;33372;-69
2022/01/27 08:49:28;;;;;;;;;;;;;;;9.87;40.75;100300.66;4466165;32;33994;-69
2022/01/27 08:51:55;;;;;;;;;;;;;;;10.21;39.73;100310.06;4464647;32;34106;-69
2022/01/27 08:54:23;;;;;;;;;;;;;;;10.05;39.32;100309.34;4464167;32;34542;-69
2022/01/27 08:56:51;;;;;;;;;;;;;;;9.45;41.15;100313.06;4464239;32;34341;-69
2022/01/27 08:59:18;;;;;;;;;;;;;;;8.99;41.61;100318.50;4468063;32;34980;-70
2022/01/27 09:01:46;;;;;;;;;;;;;;;9.36;41.34;100315.41;4464952;32;35090;-69
2022/01/27 09:04:14;;;;;;;;;;;;;;;8.85;42.62;100318.44;4466229;32;34474;-69
2022/01/27 09:06:41;;;;;;;;;;;;;;;9.24;41.90;100314.34;4465102;32;33411;-69
2022/01/27 09:09:09;;;;;;;;;;;;;;;8.63;42.17;100314.34;4464856;32;34928;-69
2022/01/27 09:11:36;;;;;;;;;;;;;;;8.44;42.70;100320.81;4466200;32;34127;-67
2022/01/27 09:14:04;;;;;;;;;;;;;;;8.65;42.54;100318.72;4463389;32;34514;-69
2022/01/27 09:16:32;;;;;;;;;;;;;;;8.66;42.58;100312.44;4466014;32;33367;-67
2022/01/27 09:19:20;;;;;;;;;;;;;;;9.46;40.69;100316.56;4467622;32;33989;-67
2022/01/27 09:21:47;;;;;;;;;;;;;;;8.94;42.08;100333.91;4466186;32;33943;-69
2022/01/27 09:24:37;;;;;;;;;;;;;;;8.96;41.44;100336.50;4467216;32;34530;-68
2022/01/27 09:27:04;;;;;;;;;;;;;;;10.18;39.53;100326.31;4464251;32;33342;-72
2022/01/27 09:29:32;;;;;;;;;;;;;;;10.63;38.09;100318.97;4463788;32;35058;-69
2022/01/27 09:31:59;;;;;;;;;;;;;;;10.60;38.63;100329.03;4467566;32;33673;-71
2022/01/27 09:34:26;;;;;;;;;;;;;;;11.24;36.86;100335.44;4466095;32;33897;-70
2022/01/27 09:36:54;;;;;;;;;;;;;;;11.00;36.76;100318.31;4462496;32;33629;-67
2022/01/27 09:39:23;;;;;;;;;;;;;;;10.39;38.18;100329.44;4466843;32;34398;-71
2022/01/27 09:41:52;;;;;;;;;;;;;;;9.66;39.29;100332.25;4467105;32;34582;-69
2022/01/27 09:44:23;;;;;;;;;;;;;;;10.39;38.14;100324.09;4467100;32;34435;-68
2022/01/27 09:46:53;;;;;;;;;;;;;;;10.29;38.36;100308.75;4463203;32;35057;-67
2022/01/27 09:49:30;;;;;;;;;;;;;;;10.06;38.74;100323.56;4466367;32;32534;-68
2022/01/27 09:51:57;;;;;;;;;;;;;;;9.89;39.57;100313.94;4454315;32;33778;-69
2022/01/27 09:54:25;;;;;;;;;;;;;;;10.11;39.41;100313.41;4463847;32;34261;-68
2022/01/27 09:56:53;;;;;;;;;;;;;;;10.26;39.00;100307.97;4463711;32;32256;-68
2022/01/27 09:59:21;;;;;;;;;;;;;;;10.52;38.03;100312.59;4461659;32;34405;-68
2022/01/27 10:01:56;;;;;;;;;;;;;;;10.37;38.08;100315.31;4467015;32;34108;-67
2022/01/27 10:04:43;;;;;;;;;;;;;;;9.94;38.59;100315.34;4466323;32;34440;-68
2022/01/27 10:07:11;;;;;;;;;;;;;;;9.69;40.10;100316.00;4466779;32;34035;-69
2022/01/27 10:09:39;;;;;;;;;;;;;;;11.32;36.72;100303.59;4464913;32;34393;-67
2022/01/27 10:12:07;;;;;;;;;;;;;;;11.31;36.53;100298.34;4467908;32;35264;-70
2022/01/27 10:14:37;;;;;;;;;;;;;;;11.34;37.10;100296.31;4465243;32;34444;-69
2022/01/27 10:17:10;;;;;;;;;;;;;;;12.17;34.86;100279.75;4466813;32;32662;-69
2022/01/27 10:19:38;;;;;;;;;;;;;;;11.48;35.87;100283.75;4464571;32;34187;-68
2022/01/27 10:22:14;;;;;;;;;;;;;;;11.54;36.40;100280.66;4465376;32;34443;-68
2022/01/27 10:24:42;;;;;;;;;;;;;;;12.48;35.00;100264.88;4465954;32;35107;-68
2022/01/27 10:27:16;;;;;;;;;;;;;;;13.33;33.36;100261.22;4464017;32;32962;-68
2022/01/27 10:30:04;;;;;;;;;;;;;;;14.32;31.61;100249.66;4466306;32;35345;-69
2022/01/27 10:32:37;;;;;;;;;;;;;;;15.61;29.22;100244.97;4467602;32;33029;-68
2022/01/27 10:35:05;;;;;;;;;;;;;;;16.66;27.43;100244.53;4463971;32;34305;-66
2022/01/27 10:37:51;;;;;;;;;;;;;;;14.55;30.13;100245.94;4466343;32;33677;-66
2022/01/27 10:40:28;;;;;;;;;;;;;;;15.71;28.44;100245.91;4468072;32;35231;-70
2022/01/27 10:43:00;;;;;;;;;;;;;;;15.91;28.11;100232.47;4467701;32;35030;-68
2022/01/27 10:45:28;;;;;;;;;;;;;;;15.88;28.06;100228.19;4436253;32;32683;-66
2022/01/27 10:48:05;;;;;;;;;;;;;;;16.11;27.58;100225.28;4433497;32;32432;-67
2022/01/27 10:51:06;;;;;;;;;;;;;;;15.46;28.90;100213.94;4435572;32;34075;-67
2022/01/27 10:53:52;;;;;;;;;;;;;;;16.15;27.54;100211.38;4432205;32;34340;-68
2022/01/27 10:56:21;;;;;;;;;;;;;;;15.18;29.29;100208.25;4432441;32;33801;-67
2022/01/27 10:58:49;;;;;;;;;;;;;;;14.95;29.34;100196.75;4432554;32;33779;-67
2022/01/27 11:01:26;;;;;;;;;;;;;;;15.25;28.91;100205.88;4435278;32;34091;-70
2022/01/27 11:03:55;;;;;;;;;;;;;;;15.01;29.63;100204.31;4433054;32;35433;-67
2022/01/27 11:06:25;;;;;;;;;;;;;;;14.63;30.54;100205.72;4427010;32;33312;-68
2022/01/27 11:08:54;;;;;;;;;;;;;;;14.49;30.06;100200.63;4435498;32;33538;-67
2022/01/27 11:11:23;;;;;;;;;;;;;;;14.58;29.87;100196.34;4430990;32;34027;-66
2022/01/27 11:13:50;;;;;;;;;;;;;;;14.31;30.10;100194.94;4433858;32;34271;-66
2022/01/27 11:16:21;;;;;;;;;;;;;;;14.20;30.88;100186.91;4432903;32;34474;-67
2022/01/27 11:18:49;;;;;;;;;;;;;;;13.93;31.09;100180.13;4426638;32;33149;-70
2022/01/27 11:21:29;;;;;;;;;;;;;;;13.09;32.49;100188.66;4428959;32;33602;-69
2022/01/27 11:24:04;;;;;;;;;;;;;;;13.55;32.20;100177.88;4434795;32;33994;-67
2022/01/27 11:26:32;;;;;;;;;;;;;;;13.16;32.64;100171.97;4428583;32;34402;-69
2022/01/27 11:29:01;;;;;;;;;;;;;;;13.23;32.48;100177.72;4430656;32;33667;-68
2022/01/27 11:31:47;;;;;;;;;;;;;;;13.23;32.71;100177.72;4429024;32;34634;-68
2022/01/27 11:34:14;;;;;;;;;;;;;;;13.16;33.43;100177.34;4433014;32;35056;-68
2022/01/27 11:36:58;;;;;;;;;;;;;;;13.12;32.83;100178.53;4423404;32;34525;-68
2022/01/27 11:39:46;;;;;;;;;;;;;;;12.96;33.42;100165.44;4436902;32;33335;-68
2022/01/27 11:42:13;;;;;;;;;;;;;;;12.97;33.32;100159.09;4429134;32;33653;-69
2022/01/27 11:44:43;;;;;;;;;;;;;;;12.75;33.52;100153.69;4456567;32;34287;-69
2022/01/27 11:47:11;;;;;;;;;;;;;;;12.42;34.98;100149.06;4464766;32;34908;-70
2022/01/27 11:49:54;;;;;;;;;;;;;;;12.18;34.00;100144.59;4466276;32;33742;-70
2022/01/27 11:52:22;;;;;;;;;;;;;;;12.00;35.33;100152.16;4468402;32;34436;-68
2022/01/27 11:54:49;;;;;;;;;;;;;;;12.17;35.07;100137.50;4466552;32;34418;-68
2022/01/27 11:57:36;;;;;;;;;;;;;;;12.21;34.45;100132.78;4463555;32;35742;-68
2022/01/27 12:00:07;;;;;;;;;;;;;;;11.96;35.43;100144.47;4466497;32;33491;-69
2022/01/27 12:02:56;;;;;;;;;;;;;;;12.72;34.18;100127.06;4461379;32;35281;-70
2022/01/27 12:05:24;;;;;;;;;;;;;;;12.18;34.99;100133.84;4465396;32;32839;-69
2022/01/27 12:08:10;;;;;;;;;;;;;;;11.74;35.25;100135.28;4464771;32;34295;-72
2022/01/27 12:10:38;;;;;;;;;;;;;;;11.98;35.21;100129.97;4467059;32;33433;-68
2022/01/27 12:13:23;;;;;;;;;;;;;;;12.12;34.92;100129.78;4465776;32;35078;-69
2022/01/27 12:16:10;;;;;;;;;;;;;;;12.08;35.87;100122.09;4465376;32;34742;-70
2022/01/27 12:18:38;;;;;;;;;;;;;;;11.43;36.13;100134.00;4461475;32;34404;-74
2022/01/27 12:21:24;;;;;;;;;;;;;;;12.17;35.58;100124.09;4465418;32;33877;-70
2022/01/27 12:24:10;;;;;;;;;;;;;;;12.33;34.89;100129.16;4465531;32;34300;-74
2022/01/27 12:26:51;;;;;;;;;;;;;;;12.48;34.18;100135.16;4462093;32;35466;-68
2022/01/27 12:29:22;;;;;;;;;;;;;;;12.62;33.73;100129.63;4468137;32;33929;-69
2022/01/27 12:31:50;;;;;;;;;;;;;;;12.49;33.96;100121.66;4461904;32;33671;-68
2022/01/27 12:34:18;;;;;;;;;;;;;;;12.76;33.69;100123.16;4470563;32;34115;-70
2022/01/27 12:36:54;;;;;;;;;;;;;;;12.64;34.22;100114.22;4465203;32;35260;-70
2022/01/27 12:39:23;;;;;;;;;;;;;;;12.66;34.15;100109.59;4463350;32;34996;-69
2022/01/27 12:41:50;;;;;;;;;;;;;;;12.38;34.40;100107.31;4472583;32;34481;-71
2022/01/27 12:44:18;;;;;;;;;;;;;;;12.72;34.80;100101.06;4466373;32;34083;-68
2022/01/27 12:47:04;;;;;;;;;;;;;;;12.83;34.40;100098.37;4453768;32;34394;-69
2022/01/27 12:49:37;;;;;;;;;;;;;;;13.22;33.63;100088.13;4468455;32;33176;-73
2022/01/27 12:52:07;;;;;;;;;;;;;;;13.53;33.34;100072.25;4471421;32;33490;-74
2022/01/27 12:54:35;;;;;;;;;;;;;;;13.72;32.98;100080.50;4468634;32;35233;-70
2022/01/27 12:57:03;;;;;;;;;;;;;;;13.32;33.44;100072.13;4480255;32;34308;-69
2022/01/27 12:59:31;;;;;;;;;;;;;;;13.22;33.79;100063.94;4474294;32;34171;-70
2022/01/27 13:02:03;;;;;;;;;;;;;;;13.10;33.34;100058.69;4468091;32;34166;-69
2022/01/27 13:04:31;;;;;;;;;;;;;;;12.68;33.99;100058.44;4468395;32;34273;-68
2022/01/27 13:06:58;;;;;;;;;;;;;;;12.93;33.95;100046.63;4462803;32;35065;-69
2022/01/27 13:09:27;;;;;;;;;;;;;;;13.46;33.07;100038.78;4467893;32;34839;-70
2022/01/27 13:11:57;;;;;;;;;;;;;;;13.70;32.68;100036.72;4467768;32;33825;-72
2022/01/27 13:14:24;;;;;;;;;;;;;;;13.05;33.42;100027.69;4474540;32;34555;-69
2022/01/27 13:16:58;;;;;;;;;;;;;;;13.16;33.76;100013.37;4479560;32;34668;-70
2022/01/27 13:19:37;;;;;;;;;;;;;;;12.68;34.83;100015.47;4477942;32;34645;-69
2022/01/27 13:22:08;;;;;;;;;;;;;;;12.16;36.08;100015.03;4459182;32;33639;-68
2022/01/27 13:24:44;;;;;;;;;;;;;;;11.56;37.74;100010.66;4473741;32;34118;-70
2022/01/27 13:27:13;;;;;;;;;;;;;;;11.65;37.12;100013.50;4472186;32;34566;-70
2022/01/27 13:29:45;;;;;;;;;;;;;;;11.99;36.81;100013.66;4470516;32;34711;-70
2022/01/27 13:32:13;;;;;;;;;;;;;;;12.33;36.38;100013.75;4458969;32;34671;-71
2022/01/27 13:34:42;;;;;;;;;;;;;;;12.17;36.49;100008.72;4468360;32;34005;-70
2022/01/27 13:37:09;;;;;;;;;;;;;;;12.54;35.61;100011.19;4459794;32;33206;-70
2022/01/27 13:42:20;;;;;;;;;;;;;;;12.64;35.80;100009.50;4460850;32;33141;-75
2022/01/27 13:44:51;;;;;;;;;;;;;;;13.18;34.52;100006.03;4464761;32;34314;-73
2022/01/27 13:47:22;;;;;;;;;;;;;;;13.17;34.37;100009.72;4460561;32;33620;-72
2022/01/27 13:49:51;;;;;;;;;;;;;;;13.21;34.32;99999.56;4464419;32;34422;-71